Time;durP1;ratioP1;P1;durP2;ratioP2;P2;SDS_P1;SDS_P2;PMS_P1;PMS_P2;Temp;Humidity;BMP_temperature;BMP_pressure;BME280_temperature;BME280_humidity;BME280_pressure;Samples;Min_cycle;Max_cycle;Signal;HPM_P1;HPM_P2
2023/05/07 00:02:22;;;;;;;2.95;2.65;;;11.00;55.30;;;;;;4929076;29;20471;-58
2023/05/07 00:04:48;;;;;;;3.33;2.50;;;11.00;55.60;;;;;;4928381;29;20031;-59
2023/05/07 00:07:14;;;;;;;2.67;2.40;;;11.00;55.40;;;;;;4932320;29;20039;-58
2023/05/07 00:09:40;;;;;;;2.80;2.50;;;11.00;55.30;;;;;;4934802;29;20123;-58
2023/05/07 00:12:06;;;;;;;2.70;2.50;;;10.90;55.10;;;;;;4930671;29;20154;-51
2023/05/07 00:14:31;;;;;;;2.85;2.58;;;11.00;55.20;;;;;;4932860;29;20078;-51
2023/05/07 00:16:57;;;;;;;3.08;2.50;;;11.00;55.30;;;;;;4934333;29;20036;-58
2023/05/07 00:19:23;;;;;;;2.95;2.65;;;10.90;55.40;;;;;;4935301;29;20034;-60
2023/05/07 00:21:48;;;;;;;3.05;2.35;;;10.90;55.30;;;;;;4932046;29;20040;-59
2023/05/07 00:24:14;;;;;;;2.67;2.40;;;10.90;55.20;;;;;;4926942;29;20027;-58
2023/05/07 00:26:40;;;;;;;2.88;2.47;;;10.90;55.40;;;;;;4937475;29;20040;-60
2023/05/07 00:29:05;;;;;;;2.40;2.30;;;10.90;55.80;;;;;;4935210;29;20083;-60
2023/05/07 00:31:31;;;;;;;3.45;2.50;;;10.90;56.00;;;;;;4931970;29;20031;-52
2023/05/07 00:33:56;;;;;;;2.40;2.20;;;10.90;56.00;;;;;;4934164;29;20030;-51
2023/05/07 00:36:22;;;;;;;2.63;2.38;;;10.90;55.60;;;;;;4932917;29;20493;-56
2023/05/07 00:38:48;;;;;;;3.03;2.47;;;10.90;55.60;;;;;;4933373;29;20043;-57
2023/05/07 00:41:15;;;;;;;3.08;2.63;;;10.90;55.40;;;;;;4930732;29;20044;-57
2023/05/07 00:43:40;;;;;;;3.25;2.40;;;10.80;55.20;;;;;;4932444;29;20031;-57
2023/05/07 00:46:06;;;;;;;2.85;2.40;;;10.80;55.20;;;;;;4929636;29;20076;-49
2023/05/07 00:48:32;;;;;;;2.63;2.42;;;10.80;55.30;;;;;;4936235;29;20087;-53
2023/05/07 00:50:58;;;;;;;2.45;2.25;;;10.80;55.40;;;;;;4933719;29;20474;-57
2023/05/07 00:53:23;;;;;;;2.97;2.60;;;10.70;55.30;;;;;;4931530;29;20035;-56
2023/05/07 00:55:49;;;;;;;3.45;2.67;;;10.70;55.50;;;;;;4923107;29;20056;-59
2023/05/07 00:58:15;;;;;;;3.13;2.70;;;10.70;55.50;;;;;;4921810;29;20042;-58
2023/05/07 01:00:41;;;;;;;2.90;2.60;;;10.70;55.30;;;;;;4929185;29;20039;-59
2023/05/07 01:03:06;;;;;;;3.22;2.30;;;10.70;55.20;;;;;;4934887;29;20078;-60
2023/05/07 01:05:32;;;;;;;2.53;2.30;;;10.60;55.20;;;;;;4933739;29;20040;-59
2023/05/07 01:07:58;;;;;;;2.70;2.50;;;10.60;55.10;;;;;;4937318;29;20090;-60
2023/05/07 01:10:25;;;;;;;5.22;2.42;;;10.60;55.30;;;;;;4918167;29;20494;-61
2023/05/07 01:12:52;;;;;;;2.70;2.50;;;10.60;55.40;;;;;;4921508;29;20028;-59
2023/05/07 01:15:18;;;;;;;2.90;2.60;;;10.60;55.60;;;;;;4927311;29;20062;-58
2023/05/07 01:17:44;;;;;;;3.55;2.85;;;10.60;55.80;;;;;;4921174;29;20059;-59
2023/05/07 01:20:10;;;;;;;2.42;2.22;;;10.60;55.50;;;;;;4931701;29;20123;-58
2023/05/07 01:22:39;;;;;;;2.35;2.15;;;10.60;55.90;;;;;;4924860;29;20027;-49
2023/05/07 01:25:09;;;;;;;3.83;2.58;;;10.50;55.70;;;;;;4924083;29;20028;-51
2023/05/07 01:27:36;;;;;;;4.28;2.55;;;10.50;55.90;;;;;;4934201;29;20393;-51
2023/05/07 01:30:03;;;;;;;2.92;2.38;;;10.60;55.80;;;;;;4927413;29;20040;-49
2023/05/07 01:32:41;;;;;;;2.63;2.42;;;10.50;55.60;;;;;;4930255;29;20134;-59
2023/05/07 01:35:11;;;;;;;2.53;2.33;;;10.50;55.60;;;;;;4921265;29;20032;-59
2023/05/07 01:37:38;;;;;;;3.90;2.47;;;10.50;55.50;;;;;;4929124;29;20067;-59
2023/05/07 01:40:05;;;;;;;3.00;2.50;;;10.50;55.40;;;;;;4924508;29;20042;-59
2023/05/07 01:42:31;;;;;;;3.13;2.47;;;10.50;55.20;;;;;;4933197;29;20482;-58
2023/05/07 01:44:57;;;;;;;3.55;2.40;;;10.50;55.50;;;;;;4921539;29;20569;-58
2023/05/07 01:47:23;;;;;;;3.25;2.15;;;10.40;55.40;;;;;;4931995;29;20071;-55
2023/05/07 01:49:49;;;;;;;2.38;2.17;;;10.40;55.40;;;;;;4931799;29;20036;-46
2023/05/07 01:52:15;;;;;;;2.80;2.20;;;10.40;55.40;;;;;;4922015;29;20059;-58
2023/05/07 01:54:41;;;;;;;2.45;2.22;;;10.40;55.40;;;;;;4933544;29;20445;-58
2023/05/07 01:57:07;;;;;;;2.65;2.30;;;10.40;55.40;;;;;;4923076;29;20024;-57
2023/05/07 01:59:32;;;;;;;3.10;2.58;;;10.40;55.30;;;;;;4923456;29;20040;-56
2023/05/07 02:01:58;;;;;;;2.63;2.42;;;10.40;55.20;;;;;;4932279;29;20059;-60
2023/05/07 02:04:24;;;;;;;3.38;2.08;;;10.30;55.20;;;;;;4926323;29;20040;-59
2023/05/07 02:06:50;;;;;;;3.53;2.72;;;10.30;55.30;;;;;;4928789;29;20079;-52
2023/05/07 02:09:15;;;;;;;2.65;2.40;;;10.30;55.40;;;;;;4925893;29;20036;-51
2023/05/07 02:11:41;;;;;;;2.83;2.28;;;10.30;55.20;;;;;;4919185;29;20036;-56
2023/05/07 02:14:07;;;;;;;2.75;2.40;;;10.30;55.20;;;;;;4926023;29;20024;-58
2023/05/07 02:16:32;;;;;;;3.05;2.20;;;10.30;55.10;;;;;;4921322;29;20510;-58
2023/05/07 02:18:58;;;;;;;2.75;2.28;;;10.30;55.00;;;;;;4930732;29;20055;-59
2023/05/07 02:21:25;;;;;;;2.75;2.47;;;10.30;55.10;;;;;;4924273;29;20067;-59
2023/05/07 02:23:51;;;;;;;2.47;2.05;;;10.30;55.20;;;;;;4933466;29;20470;-58
2023/05/07 02:26:16;;;;;;;2.90;2.30;;;10.30;55.30;;;;;;4926681;29;20023;-57
2023/05/07 02:28:42;;;;;;;2.30;2.10;;;10.30;55.50;;;;;;4920368;29;20107;-57
2023/05/07 02:31:07;;;;;;;3.38;2.33;;;10.30;55.60;;;;;;4928812;29;20115;-60
2023/05/07 02:33:34;;;;;;;2.45;2.25;;;10.30;55.50;;;;;;4930786;29;20131;-59
2023/05/07 02:36:10;;;;;;;3.53;2.67;;;10.30;55.50;;;;;;4931152;29;20051;-57
2023/05/07 02:38:36;;;;;;;3.00;2.70;;;10.40;55.70;;;;;;4931470;29;20348;-57
2023/05/07 02:41:01;;;;;;;2.60;2.40;;;10.30;55.60;;;;;;4929378;29;20048;-58
2023/05/07 02:43:27;;;;;;;2.63;2.30;;;10.40;55.90;;;;;;4922984;29;20053;-59
2023/05/07 02:46:07;;;;;;;2.40;2.20;;;10.40;56.10;;;;;;4931707;29;20028;-57
2023/05/07 02:48:33;;;;;;;2.97;2.40;;;10.40;56.10;;;;;;4930600;29;20032;-57
2023/05/07 02:50:59;;;;;;;2.40;2.20;;;10.40;56.30;;;;;;4929592;29;20031;-53
2023/05/07 02:53:26;;;;;;;2.40;2.20;;;10.40;56.10;;;;;;4931329;29;20032;-48
2023/05/07 02:56:01;;;;;;;3.30;2.70;;;10.40;56.30;;;;;;4930087;29;20090;-52
2023/05/07 02:58:27;;;;;;;2.80;2.50;;;10.40;56.50;;;;;;4929751;29;20110;-52
2023/05/07 03:00:54;;;;;;;2.65;2.45;;;10.40;56.70;;;;;;4929138;29;20043;-55
2023/05/07 03:03:20;;;;;;;3.90;2.95;;;10.40;56.50;;;;;;4930648;29;20792;-48
2023/05/07 03:05:46;;;;;;;3.58;2.60;;;10.40;56.50;;;;;;4929802;29;20115;-56
2023/05/07 03:08:12;;;;;;;2.78;2.47;;;10.40;56.90;;;;;;4930126;29;20123;-57
2023/05/07 03:10:37;;;;;;;3.05;2.50;;;10.40;56.80;;;;;;4931373;29;20530;-51
2023/05/07 03:13:03;;;;;;;2.67;2.30;;;10.50;56.90;;;;;;4927360;29;20554;-52
2023/05/07 03:15:29;;;;;;;3.65;2.70;;;10.40;56.90;;;;;;4930533;29;20040;-59
2023/05/07 03:17:55;;;;;;;3.05;2.50;;;10.50;57.00;;;;;;4930926;29;20070;-57
2023/05/07 03:20:20;;;;;;;2.42;2.22;;;10.50;56.80;;;;;;4931082;29;20751;-58
2023/05/07 03:22:46;;;;;;;3.20;2.63;;;10.50;56.70;;;;;;4929735;29;20111;-59
2023/05/07 03:25:12;;;;;;;3.05;2.45;;;10.60;56.90;;;;;;4930291;29;20539;-57
2023/05/07 03:27:38;;;;;;;2.47;2.28;;;10.60;56.90;;;;;;4927322;29;20091;-59
2023/05/07 03:30:04;;;;;;;2.17;2.00;;;10.70;57.00;;;;;;4926553;29;20074;-58
2023/05/07 03:32:30;;;;;;;2.67;2.47;;;10.70;56.90;;;;;;4919975;29;20039;-58
2023/05/07 03:34:56;;;;;;;2.72;2.47;;;10.70;57.00;;;;;;4923933;29;20032;-59
2023/05/07 03:37:21;;;;;;;2.63;2.33;;;10.80;56.80;;;;;;4921473;29;20031;-59
2023/05/07 03:39:47;;;;;;;3.00;2.10;;;10.90;56.80;;;;;;4920820;29;20102;-59
2023/05/07 03:42:13;;;;;;;2.40;2.20;;;11.00;57.30;;;;;;4921089;29;20526;-60
2023/05/07 03:44:38;;;;;;;3.20;2.28;;;11.10;57.50;;;;;;4922862;29;20687;-59
2023/05/07 03:47:04;;;;;;;4.20;2.50;;;11.20;57.80;;;;;;4922314;29;20034;-59
2023/05/07 03:49:30;;;;;;;2.67;2.30;;;11.30;57.80;;;;;;4931922;29;20027;-59
2023/05/07 03:51:56;;;;;;;4.03;2.50;;;11.50;57.40;;;;;;4927858;29;20031;-58
2023/05/07 03:54:21;;;;;;;2.28;2.08;;;11.80;57.80;;;;;;4931699;29;20518;-59
2023/05/07 03:56:47;;;;;;;2.38;2.20;;;12.00;57.70;;;;;;4933893;29;20039;-59
2023/05/07 03:59:13;;;;;;;2.20;2.00;;;12.40;57.40;;;;;;4922575;29;20036;-58
2023/05/07 04:01:39;;;;;;;2.10;2.00;;;12.90;57.70;;;;;;4925211;29;20123;-58
2023/05/07 04:04:05;;;;;;;2.33;2.03;;;13.50;57.10;;;;;;4928237;29;20066;-59
2023/05/07 04:06:30;;;;;;;3.03;2.15;;;14.30;56.00;;;;;;4927230;29;20036;-57
2023/05/07 04:08:56;;;;;;;3.38;2.50;;;15.10;54.70;;;;;;4928789;29;20043;-59
2023/05/07 04:11:22;;;;;;;2.28;2.08;;;15.90;53.40;;;;;;4930340;29;20115;-59
2023/05/07 04:13:47;;;;;;;2.20;2.00;;;16.50;52.20;;;;;;4931118;29;20028;-59
2023/05/07 04:16:13;;;;;;;2.15;1.95;;;17.00;51.40;;;;;;4931206;29;20072;-55
2023/05/07 04:18:39;;;;;;;2.05;1.85;;;17.50;50.50;;;;;;4925640;29;20039;-58
2023/05/07 04:21:05;;;;;;;2.17;1.98;;;17.90;49.90;;;;;;4925860;29;20046;-58
2023/05/07 04:23:30;;;;;;;2.13;1.70;;;18.10;49.00;;;;;;4922593;29;20032;-58
2023/05/07 04:25:57;;;;;;;1.80;1.67;;;18.10;48.10;;;;;;4927859;29;20028;-59
2023/05/07 04:28:23;;;;;;;3.40;1.95;;;18.00;47.80;;;;;;4922758;29;20130;-59
2023/05/07 04:30:48;;;;;;;2.28;2.10;;;17.80;47.70;;;;;;4922663;29;20051;-59
2023/05/07 04:33:18;;;;;;;1.98;1.88;;;17.80;47.50;;;;;;4916237;29;20091;-59
2023/05/07 04:35:43;;;;;;;2.05;1.85;;;17.70;48.10;;;;;;4918898;29;20040;-56
2023/05/07 04:38:09;;;;;;;2.15;1.90;;;17.80;47.30;;;;;;4925793;29;20040;-59
2023/05/07 04:40:38;;;;;;;1.65;1.55;;;17.80;47.10;;;;;;4923615;29;20046;-59
2023/05/07 04:43:04;;;;;;;1.95;1.80;;;17.90;46.90;;;;;;4918166;29;20144;-58
2023/05/07 04:45:30;;;;;;;1.85;1.75;;;18.20;46.70;;;;;;4921245;29;20574;-57
2023/05/07 04:47:55;;;;;;;1.92;1.77;;;18.50;46.40;;;;;;4917504;29;20059;-58
2023/05/07 04:50:23;;;;;;;2.72;1.90;;;18.90;46.10;;;;;;4923372;29;20032;-59
2023/05/07 04:52:48;;;;;;;3.95;1.70;;;19.30;46.00;;;;;;4927424;28;20372;-58
2023/05/07 04:55:14;;;;;;;1.65;1.55;;;19.70;46.20;;;;;;4925814;29;20058;-59
2023/05/07 04:57:41;;;;;;;2.05;1.83;;;20.10;45.20;;;;;;4918030;29;20055;-59
2023/05/07 05:00:08;;;;;;;3.13;1.63;;;20.40;44.70;;;;;;4925635;29;20031;-59
2023/05/07 05:02:34;;;;;;;1.88;1.60;;;20.80;44.10;;;;;;4914625;29;20039;-58
2023/05/07 05:05:02;;;;;;;1.88;1.73;;;21.00;43.90;;;;;;4916399;29;20170;-59
2023/05/07 05:07:28;;;;;;;1.63;1.52;;;21.00;43.30;;;;;;4923800;29;20032;-59
2023/05/07 05:09:55;;;;;;;1.30;1.20;;;20.90;42.90;;;;;;4926917;29;20091;-58
2023/05/07 05:12:21;;;;;;;1.83;1.70;;;20.70;42.70;;;;;;4929351;29;20035;-59
2023/05/07 05:14:47;;;;;;;1.60;1.50;;;20.40;42.60;;;;;;4927280;29;20032;-59
2023/05/07 05:17:12;;;;;;;1.60;1.50;;;20.00;42.70;;;;;;4925988;29;20782;-59
2023/05/07 05:19:38;;;;;;;1.60;1.50;;;19.70;42.30;;;;;;4925164;29;20035;-59
2023/05/07 05:22:03;;;;;;;1.83;1.65;;;19.30;42.40;;;;;;4930279;29;20489;-59
2023/05/07 05:24:30;;;;;;;2.05;1.73;;;18.90;42.60;;;;;;4926370;29;20034;-59
2023/05/07 05:26:56;;;;;;;1.95;1.60;;;18.70;42.40;;;;;;4931967;29;20111;-59
2023/05/07 05:29:21;;;;;;;3.25;1.80;;;18.50;42.10;;;;;;4925066;29;20110;-59
2023/05/07 05:31:48;;;;;;;1.85;1.40;;;18.30;42.10;;;;;;4926151;29;20044;-57
2023/05/07 05:34:13;;;;;;;1.30;1.30;;;18.00;42.20;;;;;;4924852;29;20505;-57
2023/05/07 05:36:39;;;;;;;2.17;1.88;;;17.70;42.20;;;;;;4930628;29;20071;-57
2023/05/07 05:39:05;;;;;;;1.73;1.63;;;17.30;42.50;;;;;;4925529;29;20477;-57
2023/05/07 05:41:31;;;;;;;1.73;1.50;;;17.10;42.70;;;;;;4926342;29;20040;-58
2023/05/07 05:43:57;;;;;;;2.05;1.92;;;16.80;42.90;;;;;;4924880;29;20024;-59
2023/05/07 05:46:22;;;;;;;1.77;1.67;;;16.60;43.20;;;;;;4925983;29;20151;-59
2023/05/07 05:48:48;;;;;;;1.60;1.50;;;16.50;43.40;;;;;;4927088;29;20039;-58
2023/05/07 05:51:13;;;;;;;2.00;1.80;;;16.40;43.40;;;;;;4925636;29;20035;-59
2023/05/07 05:53:39;;;;;;;2.40;1.60;;;16.30;43.30;;;;;;4921998;29;20039;-59
2023/05/07 05:56:05;;;;;;;1.73;1.63;;;16.20;43.30;;;;;;4921535;29;20413;-56
2023/05/07 05:58:31;;;;;;;1.83;1.60;;;16.10;43.40;;;;;;4927928;29;20043;-59
2023/05/07 06:00:57;;;;;;;2.20;2.00;;;16.00;43.80;;;;;;4926583;29;20051;-59
2023/05/07 06:03:23;;;;;;;1.70;1.60;;;16.00;43.70;;;;;;4923563;29;20467;-58
2023/05/07 06:05:49;;;;;;;1.73;1.63;;;15.90;43.60;;;;;;4924158;29;20043;-60
2023/05/07 06:08:14;;;;;;;1.92;1.65;;;15.80;43.40;;;;;;4918966;29;20035;-61
2023/05/07 06:10:40;;;;;;;2.22;2.03;;;15.60;43.50;;;;;;4921137;29;20028;-59
2023/05/07 06:13:06;;;;;;;2.30;1.60;;;15.50;43.90;;;;;;4917932;29;20041;-59
2023/05/07 06:15:31;;;;;;;1.55;1.45;;;15.40;43.90;;;;;;4917994;29;20039;-59
2023/05/07 06:17:57;;;;;;;1.63;1.52;;;15.30;44.10;;;;;;4922722;29;20035;-60
2023/05/07 06:20:23;;;;;;;1.65;1.55;;;15.20;44.20;;;;;;4925401;29;22054;-59
2023/05/07 06:22:49;;;;;;;1.67;1.58;;;15.10;44.10;;;;;;4929378;29;20028;-59
2023/05/07 06:25:15;;;;;;;1.80;1.70;;;15.10;43.80;;;;;;4923438;29;20448;-59
2023/05/07 06:27:40;;;;;;;1.65;1.52;;;15.10;44.00;;;;;;4912654;29;20040;-59
2023/05/07 06:30:07;;;;;;;1.92;1.33;;;15.00;43.80;;;;;;4918136;29;20070;-59
2023/05/07 06:32:32;;;;;;;1.90;1.45;;;15.00;43.90;;;;;;4918543;29;20526;-59
2023/05/07 06:34:58;;;;;;;1.63;1.52;;;14.90;43.60;;;;;;4916427;29;20090;-61
2023/05/07 06:37:24;;;;;;;1.80;1.70;;;14.90;43.40;;;;;;4926514;29;20064;-59
2023/05/07 06:39:50;;;;;;;1.70;1.60;;;14.70;43.00;;;;;;4925918;29;20098;-59
2023/05/07 06:42:15;;;;;;;1.35;1.35;;;14.60;43.10;;;;;;4925283;29;20123;-58
2023/05/07 06:44:41;;;;;;;1.63;1.52;;;14.40;43.50;;;;;;4925375;29;20059;-57
2023/05/07 06:47:07;;;;;;;2.72;1.60;;;14.30;43.60;;;;;;4926031;29;20055;-51
2023/05/07 06:49:33;;;;;;;1.52;1.42;;;14.30;43.20;;;;;;4924767;29;20186;-58
2023/05/07 06:51:58;;;;;;;1.55;1.45;;;14.20;43.20;;;;;;4923192;29;20475;-59
2023/05/07 06:54:24;;;;;;;1.25;1.25;;;14.10;43.40;;;;;;4920507;29;20103;-60
2023/05/07 06:56:50;;;;;;;1.42;1.38;;;14.10;43.40;;;;;;4929014;29;20051;-59
2023/05/07 06:59:15;;;;;;;2.75;1.63;;;14.10;43.30;;;;;;4925106;29;20035;-59
2023/05/07 07:01:41;;;;;;;1.52;1.42;;;14.10;43.20;;;;;;4925499;29;20047;-59
2023/05/07 07:04:07;;;;;;;1.58;1.40;;;14.10;43.20;;;;;;4927785;29;20035;-59
2023/05/07 07:06:33;;;;;;;1.60;1.52;;;14.00;43.30;;;;;;4922286;29;20035;-56
2023/05/07 07:08:59;;;;;;;1.48;1.38;;;13.90;43.30;;;;;;4930628;29;20547;-57
2023/05/07 07:11:25;;;;;;;2.05;1.70;;;13.80;44.00;;;;;;4926650;29;20050;-59
2023/05/07 07:13:51;;;;;;;1.55;1.33;;;13.80;43.30;;;;;;4926333;29;20031;-59
2023/05/07 07:16:16;;;;;;;2.70;1.38;;;13.80;43.50;;;;;;4931572;29;20102;-60
2023/05/07 07:18:42;;;;;;;1.70;1.60;;;13.70;43.60;;;;;;4924707;29;20035;-59
2023/05/07 07:21:08;;;;;;;1.60;1.50;;;13.70;43.70;;;;;;4920401;29;20051;-57
2023/05/07 07:23:33;;;;;;;1.50;1.40;;;13.70;43.80;;;;;;4920982;29;20119;-58
2023/05/07 07:25:59;;;;;;;1.58;1.48;;;13.70;43.90;;;;;;4925125;29;20186;-57
2023/05/07 07:28:25;;;;;;;1.42;1.40;;;13.70;43.70;;;;;;4930329;29;20171;-59
2023/05/07 07:30:50;;;;;;;1.73;1.60;;;13.60;43.50;;;;;;4929819;29;20069;-58
2023/05/07 07:33:16;;;;;;;1.45;1.35;;;13.50;43.60;;;;;;4925377;29;20028;-58
2023/05/07 07:35:42;;;;;;;1.58;1.48;;;13.40;43.80;;;;;;4921886;29;20088;-59
2023/05/07 07:38:08;;;;;;;1.67;1.58;;;13.40;43.80;;;;;;4924030;29;20993;-58
2023/05/07 07:40:36;;;;;;;1.50;1.40;;;13.30;44.20;;;;;;4924900;29;20036;-56
2023/05/07 07:43:02;;;;;;;1.88;1.50;;;13.30;44.10;;;;;;4926901;29;20038;-58
2023/05/07 07:45:28;;;;;;;1.58;1.48;;;13.30;44.70;;;;;;4925401;29;20036;-51
2023/05/07 07:47:54;;;;;;;1.70;1.60;;;13.40;44.80;;;;;;4923173;29;20027;-49
2023/05/07 07:50:20;;;;;;;1.58;1.48;;;13.50;44.50;;;;;;4915314;29;20040;-50
2023/05/07 07:52:46;;;;;;;1.48;1.38;;;13.60;44.30;;;;;;4919674;29;20067;-55
2023/05/07 07:55:12;;;;;;;1.70;1.60;;;13.70;44.20;;;;;;4930455;29;20058;-50
2023/05/07 07:57:38;;;;;;;1.60;1.50;;;13.70;44.20;;;;;;4927547;29;20032;-51
2023/05/07 08:00:05;;;;;;;1.80;1.70;;;13.80;44.20;;;;;;4924107;29;20052;-52
2023/05/07 08:02:31;;;;;;;1.55;1.45;;;13.90;44.10;;;;;;4928568;29;20525;-54
2023/05/07 08:04:57;;;;;;;1.65;1.55;;;14.00;43.90;;;;;;4923827;29;20032;-49
2023/05/07 08:07:22;;;;;;;1.45;1.35;;;14.10;44.00;;;;;;4924006;29;20064;-59
2023/05/07 08:09:48;;;;;;;1.30;1.20;;;14.20;44.20;;;;;;4924650;29;20032;-59
2023/05/07 08:12:14;;;;;;;1.40;1.30;;;14.20;44.10;;;;;;4921223;29;20086;-59
2023/05/07 08:14:40;;;;;;;1.15;1.08;;;14.20;43.80;;;;;;4918712;29;20032;-59
2023/05/07 08:17:06;;;;;;;1.58;1.48;;;14.30;43.90;;;;;;4917417;29;20041;-50
2023/05/07 08:19:32;;;;;;;1.48;1.38;;;14.30;43.70;;;;;;4922962;29;20777;-53
2023/05/07 08:21:57;;;;;;;1.75;1.60;;;14.30;43.50;;;;;;4922024;29;20103;-59
2023/05/07 08:24:23;;;;;;;1.42;1.33;;;14.30;43.40;;;;;;4916561;29;20363;-59
2023/05/07 08:26:49;;;;;;;1.42;1.33;;;14.30;43.20;;;;;;4932743;29;20450;-59
2023/05/07 08:29:15;;;;;;;1.38;1.30;;;14.30;43.00;;;;;;4924348;29;20028;-59
2023/05/07 08:31:40;;;;;;;1.25;1.20;;;14.30;43.20;;;;;;4925439;29;20032;-60
2023/05/07 08:34:06;;;;;;;1.40;1.30;;;14.30;43.00;;;;;;4934084;29;20122;-59
2023/05/07 08:36:32;;;;;;;1.45;1.40;;;14.30;42.80;;;;;;4928307;29;20035;-59
2023/05/07 08:38:59;;;;;;;1.38;1.38;;;14.30;42.80;;;;;;4926172;29;20053;-60
2023/05/07 08:41:24;;;;;;;1.50;1.40;;;14.30;42.90;;;;;;4929137;29;20130;-60
2023/05/07 08:43:51;;;;;;;1.52;1.40;;;14.30;43.10;;;;;;4933359;29;20436;-59
2023/05/07 08:46:19;;;;;;;1.38;1.30;;;14.30;42.90;;;;;;4922387;29;20024;-60
2023/05/07 08:48:48;;;;;;;2.08;1.60;;;14.30;42.70;;;;;;4928140;29;20031;-58
2023/05/07 08:51:15;;;;;;;1.50;1.38;;;14.30;42.70;;;;;;4930351;29;20043;-62
2023/05/07 08:53:41;;;;;;;1.67;1.58;;;14.30;42.60;;;;;;4926808;29;20043;-61
2023/05/07 08:56:08;;;;;;;1.15;1.08;;;14.40;42.60;;;;;;4930746;29;20110;-57
2023/05/07 08:58:34;;;;;;;1.63;1.30;;;14.40;42.70;;;;;;4930650;29;20451;-57
2023/05/07 09:01:07;;;;;;;1.40;1.30;;;14.40;42.70;;;;;;4925128;29;20099;-51
2023/05/07 09:03:33;;;;;;;1.55;1.45;;;14.50;42.80;;;;;;4927220;29;20027;-53
2023/05/07 09:05:58;;;;;;;1.38;1.27;;;14.50;42.60;;;;;;4928186;29;20102;-57
2023/05/07 09:08:25;;;;;;;2.05;1.23;;;14.50;42.60;;;;;;4929845;29;20427;-59
2023/05/07 09:10:52;;;;;;;1.50;1.40;;;14.50;42.60;;;;;;4921434;29;20039;-59
2023/05/07 09:13:18;;;;;;;1.52;1.40;;;14.50;42.40;;;;;;4926393;29;20340;-59
2023/05/07 09:15:43;;;;;;;1.30;1.30;;;14.50;42.20;;;;;;4925064;29;20038;-59
2023/05/07 09:18:09;;;;;;;1.60;1.48;;;14.50;42.20;;;;;;4928281;29;20040;-62
2023/05/07 09:20:37;;;;;;;1.60;1.50;;;14.60;43.00;;;;;;4933473;29;20031;-59
2023/05/07 09:23:03;;;;;;;1.20;1.20;;;14.60;42.20;;;;;;4930156;29;20059;-58
2023/05/07 09:25:35;;;;;;;1.48;1.38;;;14.60;42.30;;;;;;4930942;29;20032;-58
2023/05/07 09:28:02;;;;;;;1.50;1.40;;;14.60;42.00;;;;;;4930334;29;20095;-58
2023/05/07 09:30:29;;;;;;;2.00;1.73;;;14.60;42.30;;;;;;4930379;29;20095;-50
2023/05/07 09:32:56;;;;;;;3.30;1.42;;;14.60;42.30;;;;;;4933180;29;20478;-53
2023/05/07 09:35:24;;;;;;;126.32;14.32;;;14.60;42.50;;;;;;4931727;29;20039;-56
2023/05/07 09:37:50;;;;;;;105.53;13.55;;;14.60;42.30;;;;;;4930353;29;20467;-60
2023/05/07 09:40:22;;;;;;;3.03;1.42;;;14.60;42.50;;;;;;4929836;29;20471;-53
2023/05/07 09:42:49;;;;;;;2.13;1.60;;;14.60;42.70;;;;;;4931561;29;20070;-58
2023/05/07 09:45:35;;;;;;;1.85;1.27;;;14.60;42.60;;;;;;4928650;29;20378;-50
2023/05/07 09:48:05;;;;;;;1.35;1.20;;;14.60;42.90;;;;;;4928732;29;20044;-55
2023/05/07 09:50:36;;;;;;;5.00;1.63;;;14.60;42.80;;;;;;4931913;29;20119;-60
2023/05/07 09:53:04;;;;;;;1.38;1.27;;;14.50;42.80;;;;;;4930432;29;20042;-60
2023/05/07 09:55:30;;;;;;;1.42;1.33;;;14.50;42.60;;;;;;4930451;29;20099;-50
2023/05/07 09:57:57;;;;;;;2.63;1.70;;;14.50;42.40;;;;;;4932206;29;20462;-55
2023/05/07 10:00:23;;;;;;;1.67;1.58;;;14.50;42.10;;;;;;4932469;29;20051;-53
2023/05/07 10:02:51;;;;;;;1.13;1.10;;;14.40;42.00;;;;;;4931861;29;20075;-50
2023/05/07 10:05:21;;;;;;;1.55;1.45;;;14.40;42.10;;;;;;4928125;29;20036;-51
2023/05/07 10:07:48;;;;;;;1.52;1.42;;;14.30;42.20;;;;;;4931532;29;20035;-56
2023/05/07 10:10:15;;;;;;;1.95;1.17;;;14.20;42.30;;;;;;4927780;29;20036;-54
2023/05/07 10:12:41;;;;;;;1.10;1.10;;;14.10;42.30;;;;;;4931742;29;20478;-56
2023/05/07 10:15:08;;;;;;;1.60;1.33;;;14.00;42.30;;;;;;4927455;29;20534;-53
2023/05/07 10:17:39;;;;;;;1.20;1.20;;;14.00;42.50;;;;;;4932766;29;20043;-53
2023/05/07 10:20:06;;;;;;;1.50;1.40;;;13.90;42.50;;;;;;4930282;29;20047;-53
2023/05/07 10:22:47;;;;;;;1.40;1.30;;;13.90;42.60;;;;;;4931372;29;20048;-53
2023/05/07 10:25:20;;;;;;;1.40;1.40;;;13.80;42.60;;;;;;4929578;29;20028;-55
2023/05/07 10:27:49;;;;;;;1.67;1.58;;;13.80;42.90;;;;;;4926052;29;20590;-54
2023/05/07 10:30:27;;;;;;;1.20;1.10;;;13.80;42.70;;;;;;4931686;29;20027;-50
2023/05/07 10:32:56;;;;;;;1.95;1.30;;;13.70;42.80;;;;;;4930944;29;20131;-56
2023/05/07 10:35:31;;;;;;;1.55;1.45;;;13.80;42.90;;;;;;4927965;29;20028;-56
2023/05/07 10:37:57;;;;;;;1.95;1.83;;;13.80;42.80;;;;;;4932177;29;20035;-54
2023/05/07 10:40:22;;;;;;;1.73;1.63;;;13.80;43.00;;;;;;4929405;29;20035;-61
2023/05/07 10:42:55;;;;;;;2.00;1.30;;;13.80;42.60;;;;;;4929005;29;20039;-61
2023/05/07 10:45:22;;;;;;;1.80;1.70;;;13.70;42.30;;;;;;4927680;29;20455;-62
2023/05/07 10:48:07;;;;;;;2.08;1.60;;;13.70;42.20;;;;;;4931927;29;20023;-61
2023/05/07 10:50:33;;;;;;;1.58;1.25;;;13.70;42.60;;;;;;4927890;29;20382;-60
2023/05/07 10:53:16;;;;;;;1.35;1.30;;;13.70;43.00;;;;;;4931500;29;20043;-62
2023/05/07 10:55:43;;;;;;;1.45;1.40;;;13.70;43.00;;;;;;4925865;29;20138;-62
2023/05/07 10:58:37;;;;;;;1.58;1.48;;;13.70;43.10;;;;;;4931702;29;20415;-62
2023/05/07 11:01:03;;;;;;;1.33;1.23;;;13.70;42.60;;;;;;4917686;29;20067;-60
2023/05/07 11:03:29;;;;;;;1.70;1.60;;;13.70;42.90;;;;;;4931009;29;20043;-62
2023/05/07 11:06:15;;;;;;;1.58;1.40;;;13.70;42.80;;;;;;4930399;29;20032;-62
2023/05/07 11:08:56;;;;;;;1.25;1.25;;;13.70;42.70;;;;;;4930132;29;20035;-60
2023/05/07 11:11:45;;;;;;;1.70;1.60;;;13.70;42.70;;;;;;4931144;29;20031;-60
2023/05/07 11:14:11;;;;;;;1.60;1.50;;;13.70;42.70;;;;;;4927037;29;20043;-57
2023/05/07 11:16:37;;;;;;;1.85;1.75;;;13.70;42.60;;;;;;4929262;29;20036;-63
2023/05/07 11:19:04;;;;;;;1.45;1.40;;;13.80;42.70;;;;;;4927128;29;20063;-62
2023/05/07 11:21:41;;;;;;;2.42;2.22;;;13.80;42.60;;;;;;4929360;29;20047;-53
2023/05/07 11:24:10;;;;;;;1.83;1.73;;;13.80;42.20;;;;;;4927777;29;20031;-50
2023/05/07 11:26:46;;;;;;;1.33;1.25;;;13.80;42.30;;;;;;4930813;29;20027;-59
2023/05/07 11:29:21;;;;;;;1.85;1.67;;;13.70;42.70;;;;;;4927052;29;20044;-59
2023/05/07 11:31:51;;;;;;;2.28;1.83;;;13.70;42.70;;;;;;4931232;29;20055;-60
2023/05/07 11:34:22;;;;;;;1.85;1.75;;;13.70;43.40;;;;;;4929751;29;20036;-63
2023/05/07 11:36:49;;;;;;;2.70;1.80;;;13.80;43.30;;;;;;4927263;29;20023;-60
2023/05/07 11:39:32;;;;;;;1.88;1.55;;;13.80;42.80;;;;;;4928361;29;20075;-63
2023/05/07 11:41:59;;;;;;;1.50;1.40;;;13.80;42.30;;;;;;4930334;29;20047;-50
2023/05/07 11:44:25;;;;;;;1.63;1.52;;;13.70;42.10;;;;;;4928819;29;20051;-52
2023/05/07 11:46:51;;;;;;;1.63;1.52;;;13.70;42.70;;;;;;4929450;29;20059;-55
2023/05/07 11:49:17;;;;;;;2.10;1.90;;;13.70;42.60;;;;;;4930874;29;20520;-50
2023/05/07 11:51:43;;;;;;;1.95;1.85;;;13.80;58.20;;;;;;4929060;29;20625;-55
2023/05/07 11:54:11;;;;;;;2.10;1.90;;;13.70;69.60;;;;;;4928714;29;20114;-47
2023/05/07 11:56:37;;;;;;;2.80;2.00;;;13.00;72.80;;;;;;4927114;29;20113;-61
2023/05/07 11:59:02;;;;;;;2.15;2.00;;;12.20;74.80;;;;;;4927470;29;20047;-58
2023/05/07 12:01:28;;;;;;;2.28;2.17;;;11.40;77.90;;;;;;4930217;29;20032;-61
2023/05/07 12:03:54;;;;;;;3.67;2.20;;;10.90;79.70;;;;;;4927199;29;20036;-62
2023/05/07 12:06:20;;;;;;;2.30;2.10;;;10.50;81.90;;;;;;4934672;29;20143;-59
2023/05/07 12:08:46;;;;;;;2.28;2.08;;;10.40;85.90;;;;;;4932460;29;20027;-59
2023/05/07 12:11:22;;;;;;;2.20;2.00;;;10.40;87.20;;;;;;4933689;29;20115;-58
2023/05/07 12:13:47;;;;;;;2.72;2.40;;;10.40;86.10;;;;;;4930762;29;20050;-58
2023/05/07 12:16:14;;;;;;;3.20;2.50;;;10.40;89.10;;;;;;4933717;29;20036;-60
2023/05/07 12:18:40;;;;;;;2.47;2.05;;;10.50;90.30;;;;;;4931468;29;20039;-59
2023/05/07 12:21:07;;;;;;;2.58;2.20;;;10.60;90.90;;;;;;4933473;29;20039;-59
2023/05/07 12:23:35;;;;;;;2.35;2.15;;;10.70;88.90;;;;;;4930693;29;20024;-58
2023/05/07 12:26:01;;;;;;;2.38;1.90;;;10.80;87.70;;;;;;4933156;29;20455;-60
2023/05/07 12:28:27;;;;;;;2.40;2.20;;;10.90;88.60;;;;;;4932097;29;20086;-60
2023/05/07 12:30:53;;;;;;;2.65;2.20;;;10.90;86.80;;;;;;4932512;29;20048;-62
2023/05/07 12:33:23;;;;;;;2.38;2.10;;;11.00;85.50;;;;;;4931282;29;20201;-61
2023/05/07 12:35:49;;;;;;;2.65;2.10;;;11.10;87.80;;;;;;4930515;29;20128;-62
2023/05/07 12:38:17;;;;;;;2.90;2.00;;;11.20;89.40;;;;;;4933311;29;20028;-64
2023/05/07 12:40:51;;;;;;;2.50;2.30;;;11.20;88.10;;;;;;4933512;29;20562;-61
2023/05/07 12:43:29;;;;;;;2.33;2.20;;;11.30;90.00;;;;;;4932782;29;20035;-61
2023/05/07 12:45:59;;;;;;;2.35;2.10;;;11.40;88.90;;;;;;4933228;29;20118;-53